Time;durP1;ratioP1;P1;durP2;ratioP2;P2;SDS_P1;SDS_P2;PMS_P1;PMS_P2;Temp;Humidity;BMP_temperature;BMP_pressure;BME280_temperature;BME280_humidity;BME280_pressure;Samples;Min_cycle;Max_cycle;Signal;HPM_P1;HPM_P2
2022/09/04 00:00:20;;;;;;;3.00;2.33;;;14.50;99.90;14.50;100756.00;;;;4916778;28;88226;-63
2022/09/04 00:03:16;;;;;;;3.50;2.63;;;14.40;99.90;14.50;100758.00;;;;4918703;28;88141;-64
2022/09/04 00:05:51;;;;;;;3.30;2.60;;;14.40;99.90;14.50;100757.00;;;;4920850;28;87577;-65
2022/09/04 00:08:41;;;;;;;4.07;1.85;;;14.40;99.90;14.50;100760.00;;;;4931610;28;97445;-65
2022/09/04 00:11:25;;;;;;;3.03;2.00;;;14.50;99.90;14.50;100757.00;;;;4917423;28;98929;-64
2022/09/04 00:14:02;;;;;;;2.07;1.67;;;14.50;99.90;14.50;100757.00;;;;4919502;28;98889;-64
2022/09/04 00:17:02;;;;;;;2.03;1.80;;;14.50;99.90;14.50;100769.00;;;;4917457;28;87908;-64
2022/09/04 00:19:55;;;;;;;2.13;1.93;;;14.50;99.90;14.50;100758.00;;;;4914974;28;88972;-64
2022/09/04 00:22:56;;;;;;;2.60;2.17;;;14.50;99.90;14.50;100772.00;;;;4916392;28;87948;-63
2022/09/04 00:25:52;;;;;;;1.77;1.33;;;14.50;99.90;14.50;100754.00;;;;4883360;28;88770;-63
2022/09/04 00:28:46;;;;;;;2.33;2.13;;;14.50;99.90;14.50;100765.00;;;;4917495;28;87807;-64
2022/09/04 00:31:29;;;;;;;3.10;2.37;;;14.50;99.90;14.50;100761.00;;;;4932958;28;102125;-64
2022/09/04 00:34:37;;;;;;;3.07;2.77;;;14.50;99.90;14.50;100763.00;;;;4921538;28;88213;-64
2022/09/04 00:37:07;;;;;;;2.70;2.10;;;14.50;99.90;14.50;100768.00;;;;4919276;28;88107;-65
2022/09/04 00:40:05;;;;;;;3.03;2.27;;;14.40;99.90;14.50;100767.00;;;;4933192;28;98598;-64
2022/09/04 00:43:14;;;;;;;5.03;2.73;;;14.40;99.90;14.40;100774.00;;;;4925042;28;87803;-64
2022/09/04 00:46:26;;;;;;;2.27;2.07;;;14.40;99.90;14.40;100780.00;;;;4923449;28;87747;-63
2022/09/04 00:49:29;;;;;;;2.27;2.00;;;14.40;99.90;14.40;100780.00;;;;4920802;28;88737;-63
2022/09/04 00:52:47;;;;;;;4.10;2.37;;;14.40;99.90;14.40;100778.00;;;;4936142;28;105042;-63
2022/09/04 00:55:46;;;;;;;1.70;1.60;;;14.40;99.90;14.40;100784.00;;;;4913161;28;100336;-64
2022/09/04 00:58:51;;;;;;;3.63;2.33;;;14.40;99.90;14.30;100786.00;;;;4923789;28;87985;-64
2022/09/04 01:01:23;;;;;;;1.77;1.67;;;14.30;99.90;14.40;100781.00;;;;4920543;28;88443;-64
2022/09/04 01:04:25;;;;;;;3.10;2.13;;;14.40;99.90;14.40;100780.00;;;;4920943;28;87754;-63
2022/09/04 01:07:24;;;;;;;4.07;2.30;;;14.30;99.90;14.40;100789.00;;;;4914323;28;101900;-64
2022/09/04 01:09:54;;;;;;;2.40;2.20;;;14.30;99.90;14.40;100783.00;;;;4910696;28;110988;-64
2022/09/04 01:12:31;;;;;;;3.00;2.23;;;14.30;99.90;14.40;100790.00;;;;4919020;28;110230;-64
2022/09/04 01:15:18;;;;;;;2.77;2.57;;;14.40;99.90;14.40;100802.00;;;;4922636;28;87678;-64
2022/09/04 01:18:21;;;;;;;4.53;2.50;;;14.40;99.90;14.40;100799.00;;;;4919291;28;88972;-64
2022/09/04 01:21:05;;;;;;;3.07;2.77;;;14.40;99.90;14.50;100796.00;;;;4916730;28;89814;-65
2022/09/04 01:24:18;;;;;;;4.40;2.33;;;14.40;99.90;14.50;100803.00;;;;4925614;28;88230;-65
2022/09/04 01:27:12;;;;;;;3.83;2.17;;;14.40;99.90;14.50;100799.00;;;;4936474;28;87867;-65
2022/09/04 01:30:09;;;;;;;3.07;2.43;;;14.40;99.90;14.50;100794.00;;;;4922638;28;87951;-64
2022/09/04 01:33:12;;;;;;;2.20;1.90;;;14.40;99.90;14.50;100801.00;;;;4935490;28;88895;-63
2022/09/04 01:36:01;;;;;;;4.53;2.30;;;14.40;99.90;14.50;100800.00;;;;4932844;28;88106;-64
2022/09/04 01:38:57;;;;;;;2.77;2.23;;;14.40;99.90;14.50;100806.00;;;;4917587;28;87351;-64
2022/09/04 01:41:42;;;;;;;2.10;1.83;;;14.40;99.90;14.50;100809.00;;;;4936581;28;97382;-63
2022/09/04 01:44:10;;;;;;;2.30;2.03;;;14.40;99.90;14.50;100811.00;;;;4919721;28;101088;-63
2022/09/04 01:46:49;;;;;;;2.80;2.47;;;14.50;99.90;14.60;100811.00;;;;4920361;28;88770;-64
2022/09/04 01:49:57;;;;;;;2.47;1.90;;;14.50;99.90;14.60;100817.00;;;;4921066;28;87776;-63
2022/09/04 01:53:01;;;;;;;2.87;2.53;;;14.60;99.90;14.70;100816.00;;;;4895768;28;100219;-63
2022/09/04 01:55:46;;;;;;;4.83;2.10;;;14.60;99.90;14.70;100810.00;;;;4919815;28;109600;-65
2022/09/04 01:58:18;;;;;;;5.27;2.20;;;14.60;99.90;14.80;100814.00;;;;4934064;28;87785;-64
2022/09/04 02:01:03;;;;;;;4.73;2.70;;;14.70;99.90;14.80;100815.00;;;;4918974;28;87996;-63
2022/09/04 02:03:52;;;;;;;2.13;2.00;;;14.70;99.90;14.80;100821.00;;;;4918673;28;101143;-65
2022/09/04 02:06:40;;;;;;;1.90;1.80;;;14.70;99.90;14.80;100815.00;;;;4914875;28;87241;-65
2022/09/04 02:09:28;;;;;;;2.37;1.57;;;14.80;99.90;14.90;100815.00;;;;4922104;28;87820;-64
2022/09/04 02:12:27;;;;;;;2.07;1.90;;;14.80;99.90;14.90;100807.00;;;;4916185;28;98411;-64
2022/09/04 02:15:20;;;;;;;5.10;2.50;;;14.80;99.90;14.90;100814.00;;;;4918690;28;88704;-63
2022/09/04 02:18:20;;;;;;;2.73;2.07;;;14.80;99.90;14.90;100804.00;;;;4920812;28;108242;-63
2022/09/04 02:21:01;;;;;;;4.40;2.27;;;14.80;99.90;14.90;100816.00;;;;4921731;28;87959;-63
2022/09/04 02:24:09;;;;;;;2.63;1.93;;;14.80;99.90;14.80;100806.00;;;;4915361;28;88049;-64
2022/09/04 02:26:49;;;;;;;1.80;1.70;;;14.80;99.90;14.80;100819.00;;;;4917762;28;97990;-64
2022/09/04 02:29:42;;;;;;;6.85;1.77;;;14.80;99.90;14.80;100807.00;;;;4918686;28;89843;-63
2022/09/04 02:33:02;;;;;;;2.13;1.97;;;14.80;99.90;14.70;100810.00;;;;4915736;28;88235;-63
2022/09/04 02:35:57;;;;;;;4.95;2.45;;;14.70;99.90;14.70;100811.00;;;;4924204;28;86867;-64
2022/09/04 02:39:02;;;;;;;2.93;2.27;;;14.70;99.90;14.70;100812.00;;;;4919414;28;87547;-64
2022/09/04 02:41:51;;;;;;;1.77;1.50;;;14.40;99.90;14.70;100817.00;;;;4909894;28;88594;-63
2022/09/04 02:44:29;;;;;;;2.70;2.10;;;14.70;99.90;14.70;100813.00;;;;4913555;28;88784;-64
2022/09/04 02:47:17;;;;;;;1.65;1.55;;;14.60;99.90;14.60;100824.00;;;;4921311;28;87729;-63
2022/09/04 02:50:10;;;;;;;1.75;1.65;;;14.60;99.90;14.60;100819.00;;;;4913175;28;103753;-64
2022/09/04 02:53:03;;;;;;;3.07;2.43;;;14.60;99.90;14.60;100820.00;;;;4934331;28;108179;-64
2022/09/04 02:56:10;;;;;;;8.87;2.60;;;14.60;99.90;14.60;100821.00;;;;4921089;28;88501;-63
2022/09/04 02:59:28;;;;;;;2.33;2.13;;;14.60;99.90;14.60;100819.00;;;;4919645;28;103333;-63
2022/09/04 03:02:03;;;;;;;3.47;2.13;;;14.60;99.90;14.60;100824.00;;;;4913032;28;100127;-64
2022/09/04 03:04:59;;;;;;;2.80;1.87;;;14.50;99.90;14.60;100821.00;;;;4922191;28;109355;-64
2022/09/04 03:07:32;;;;;;;3.60;2.20;;;14.50;99.90;14.60;100831.00;;;;4923246;28;87622;-63
2022/09/04 03:10:19;;;;;;;3.63;2.67;;;14.50;99.90;14.60;100820.00;;;;4933723;28;88336;-64
2022/09/04 03:13:43;;;;;;;3.08;2.22;;;14.50;99.90;14.50;100820.00;;;;4932946;28;88749;-63
2022/09/04 03:16:24;;;;;;;2.23;2.03;;;14.50;99.90;14.50;100820.00;;;;4919788;28;87973;-64
2022/09/04 03:18:52;;;;;;;7.97;2.57;;;14.50;99.90;14.50;100826.00;;;;4935442;28;88234;-65
2022/09/04 03:21:26;;;;;;;2.47;2.27;;;14.50;99.90;14.50;100833.00;;;;4918020;28;109611;-64
2022/09/04 03:24:05;;;;;;;2.80;2.57;;;14.70;99.90;14.50;100820.00;;;;4918296;28;87835;-64
2022/09/04 03:26:49;;;;;;;2.67;2.23;;;14.40;99.90;14.40;100830.00;;;;4920142;28;109351;-64
2022/09/04 03:29:25;;;;;;;3.93;2.70;;;14.40;99.90;14.40;100825.00;;;;4923243;28;88127;-63
2022/09/04 03:32:08;;;;;;;4.87;2.70;;;14.40;99.90;14.40;100821.00;;;;4918569;28;87002;-64
2022/09/04 03:34:57;;;;;;;4.77;3.20;;;14.30;99.90;14.30;100821.00;;;;4919166;28;102408;-65
2022/09/04 03:37:44;;;;;;;3.90;3.07;;;14.30;99.90;14.30;100826.00;;;;4919276;28;116624;-65
2022/09/04 03:40:20;;;;;;;2.40;2.20;;;14.30;99.90;14.30;100823.00;;;;4915434;28;88768;-64
2022/09/04 03:43:31;;;;;;;3.50;2.27;;;14.20;99.90;14.20;100819.00;;;;4921753;28;87775;-65
2022/09/04 03:46:41;;;;;;;2.40;2.20;;;14.20;99.90;14.20;100817.00;;;;4907973;28;88317;-64
2022/09/04 03:49:46;;;;;;;2.23;1.77;;;14.20;99.90;14.20;100820.00;;;;4918017;28;88104;-65
2022/09/04 03:52:49;;;;;;;3.57;2.73;;;14.20;99.90;14.10;100818.00;;;;4934719;28;102906;-63
2022/09/04 03:55:55;;;;;;;3.03;2.47;;;14.10;99.90;14.10;100817.00;;;;4916116;28;88267;-64
2022/09/04 03:58:39;;;;;;;2.67;2.43;;;14.10;99.90;14.10;100821.00;;;;4915572;28;103776;-65
2022/09/04 04:01:17;;;;;;;3.80;2.33;;;14.00;99.90;14.00;100826.00;;;;4917161;28;108816;-64
2022/09/04 04:04:34;;;;;;;2.47;2.27;;;14.00;99.90;14.00;100833.00;;;;4919287;28;100901;-64
2022/09/04 04:07:17;;;;;;;4.00;2.57;;;14.00;99.90;14.00;100826.00;;;;4920240;28;87788;-64
2022/09/04 04:10:22;;;;;;;2.23;2.00;;;14.00;99.90;14.00;100836.00;;;;4910636;28;89079;-64
2022/09/04 04:13:11;;;;;;;2.43;2.23;;;14.00;99.90;14.00;100852.00;;;;4920148;28;87629;-64
2022/09/04 04:15:42;;;;;;;3.17;2.53;;;14.00;99.90;14.00;100852.00;;;;4916631;28;87816;-63
2022/09/04 04:18:41;;;;;;;5.77;2.80;;;13.90;99.90;13.90;100860.00;;;;4921878;28;95674;-64
2022/09/04 04:21:09;;;;;;;3.83;3.07;;;13.90;99.90;13.90;100848.00;;;;4894741;28;87865;-64
2022/09/04 04:24:37;;;;;;;3.03;2.80;;;13.90;99.90;13.90;100858.00;;;;4933999;28;109400;-65
2022/09/04 04:27:25;;;;;;;3.13;2.37;;;13.90;99.90;13.90;100853.00;;;;4918176;28;87918;-64
2022/09/04 04:30:02;;;;;;;3.13;2.40;;;13.80;99.90;13.80;100850.00;;;;4917557;28;87396;-64
2022/09/04 04:32:45;;;;;;;3.70;2.67;;;13.80;99.90;13.80;100847.00;;;;4917500;28;87791;-64
2022/09/04 04:35:37;;;;;;;3.90;2.70;;;13.80;99.90;13.80;100850.00;;;;4921404;28;88387;-64
2022/09/04 04:38:33;;;;;;;4.80;2.60;;;13.80;99.90;13.70;100863.00;;;;4932845;28;112809;-64
2022/09/04 04:41:22;;;;;;;5.07;3.47;;;13.70;99.90;13.70;100864.00;;;;4919988;28;87817;-65
2022/09/04 04:44:14;;;;;;;2.60;2.30;;;13.70;99.90;13.70;100868.00;;;;4905884;28;87652;-64
2022/09/04 04:47:10;;;;;;;3.60;2.40;;;13.60;99.90;13.60;100868.00;;;;4919042;28;88231;-65
2022/09/04 04:50:07;;;;;;;4.47;3.20;;;13.60;99.90;13.60;100874.00;;;;4929232;28;88678;-64
2022/09/04 04:53:04;;;;;;;4.70;3.40;;;13.60;99.90;13.70;100874.00;;;;4931308;28;88343;-64
2022/09/04 04:55:55;;;;;;;6.67;2.90;;;13.60;99.90;13.70;100870.00;;;;4911634;28;87781;-64
2022/09/04 04:59:05;;;;;;;3.20;2.80;;;13.70;99.90;13.80;100879.00;;;;4908206;28;109033;-64
2022/09/04 05:01:54;;;;;;;2.90;2.53;;;13.80;99.90;13.90;100883.00;;;;4916037;28;87754;-64
2022/09/04 05:04:54;;;;;;;2.53;1.73;;;13.80;99.90;14.00;100880.00;;;;4910701;28;87984;-64
2022/09/04 05:07:35;;;;;;;3.13;2.50;;;13.90;99.90;14.10;100887.00;;;;4932457;28;101709;-63
2022/09/04 05:10:21;;;;;;;3.10;2.80;;;14.00;99.90;14.10;100887.00;;;;4911494;28;88035;-64
2022/09/04 05:13:19;;;;;;;2.50;2.30;;;14.00;99.90;14.20;100892.00;;;;4916037;28;88123;-64
2022/09/04 05:15:59;;;;;;;1.77;1.60;;;14.10;99.90;14.20;100893.00;;;;4916038;28;95249;-66
2022/09/04 05:18:32;;;;;;;5.77;1.97;;;14.10;99.90;14.30;100899.00;;;;4915301;28;87841;-64
2022/09/04 05:21:18;;;;;;;3.13;2.63;;;14.20;99.90;14.40;100912.00;;;;4928920;28;105619;-64
2022/09/04 05:23:58;;;;;;;4.40;2.47;;;14.30;99.90;14.50;100907.00;;;;4909038;28;88819;-65
2022/09/04 05:26:34;;;;;;;4.67;2.60;;;14.40;99.90;14.50;100907.00;;;;4928354;28;105663;-64
2022/09/04 05:29:15;;;;;;;2.60;2.03;;;14.50;99.90;14.60;100913.00;;;;4916970;28;87784;-65
2022/09/04 05:32:27;;;;;;;2.40;2.10;;;14.50;99.90;14.60;100914.00;;;;4915009;28;110329;-64
2022/09/04 05:35:16;;;;;;;3.10;2.60;;;14.50;99.90;14.70;100921.00;;;;4912916;28;88806;-64
2022/09/04 05:38:21;;;;;;;4.60;2.53;;;14.60;99.90;14.80;100919.00;;;;4913867;28;104664;-64
2022/09/04 05:41:30;;;;;;;5.30;2.43;;;14.70;99.90;14.90;100924.00;;;;4912274;28;87947;-63
2022/09/04 05:44:24;;;;;;;3.33;2.37;;;14.80;99.90;15.00;100931.00;;;;4913662;28;108599;-63
2022/09/04 05:47:07;;;;;;;3.20;2.90;;;14.90;99.90;15.20;100942.00;;;;4914045;28;93964;-64
2022/09/04 05:50:27;;;;;;;3.33;2.33;;;15.00;99.90;15.40;100934.00;;;;4910097;28;105040;-63
2022/09/04 05:53:38;;;;;;;5.40;2.55;;;15.20;99.90;15.50;100941.00;;;;4886472;28;88236;-64
2022/09/04 05:56:30;;;;;;;5.05;2.75;;;15.40;99.90;15.70;100941.00;;;;4912812;28;87550;-65
2022/09/04 05:59:26;;;;;;;3.72;2.92;;;15.50;99.90;15.80;100950.00;;;;4914351;28;87926;-64
2022/09/04 06:02:20;;;;;;;5.60;2.95;;;15.60;99.90;15.90;100948.00;;;;4913810;28;88136;-64
2022/09/04 06:05:23;;;;;;;3.20;2.70;;;15.70;99.90;16.00;100955.00;;;;4909726;28;102426;-63
2022/09/04 06:08:31;;;;;;;4.93;2.72;;;15.80;99.90;16.20;100957.00;;;;4927548;28;111322;-63
2022/09/04 06:11:18;;;;;;;3.28;2.42;;;16.00;99.90;16.30;100965.00;;;;4913063;28;87875;-64
2022/09/04 06:14:37;;;;;;;4.68;2.65;;;16.10;99.90;16.50;100964.00;;;;4912326;28;103435;-63
2022/09/04 06:17:50;;;;;;;4.22;2.25;;;16.30;99.90;16.70;100975.00;;;;4907702;28;88015;-63
2022/09/04 06:20:32;;;;;;;4.28;2.72;;;16.40;99.90;16.80;100974.00;;;;4911704;28;88158;-63
2022/09/04 06:23:21;;;;;;;3.50;2.70;;;16.60;99.90;17.00;100978.00;;;;4911867;28;88201;-64
2022/09/04 06:26:10;;;;;;;4.85;2.45;;;16.80;99.90;17.20;100974.00;;;;4912959;28;101062;-64
2022/09/04 06:29:16;;;;;;;2.25;2.05;;;17.00;99.90;17.40;100976.00;;;;4911753;28;87963;-65
2022/09/04 06:32:15;;;;;;;3.22;2.92;;;17.20;99.90;17.60;100973.00;;;;4909924;28;101955;-64
2022/09/04 06:35:31;;;;;;;3.95;2.58;;;17.40;99.90;17.90;100977.00;;;;4912462;28;88658;-64
2022/09/04 06:38:46;;;;;;;2.80;1.88;;;17.60;99.90;18.20;100975.00;;;;4853026;28;87938;-64
2022/09/04 06:41:50;;;;;;;2.45;1.80;;;17.90;99.90;18.30;100983.00;;;;4826114;28;88064;-64
2022/09/04 06:44:40;;;;;;;2.97;2.50;;;18.00;99.90;18.50;100980.00;;;;4882822;28;89192;-64
2022/09/04 06:47:24;;;;;;;3.45;2.38;;;18.20;99.90;18.70;100983.00;;;;4912140;28;88459;-63
2022/09/04 06:50:28;;;;;;;1.60;1.50;;;18.40;99.90;19.00;100984.00;;;;4912677;28;87938;-64
2022/09/04 06:53:25;;;;;;;4.50;2.47;;;18.70;99.90;19.40;100999.00;;;;4909865;28;87692;-63
2022/09/04 06:56:12;;;;;;;4.28;2.30;;;19.00;99.30;19.60;100995.00;;;;4907639;28;87294;-64
2022/09/04 06:59:07;;;;;;;2.65;2.28;;;19.30;98.90;19.70;100990.00;;;;4910960;28;87962;-63
2022/09/04 07:02:24;;;;;;;3.88;2.55;;;19.50;96.90;19.70;101001.00;;;;4910376;28;100920;-63
2022/09/04 07:05:22;;;;;;;3.17;2.50;;;19.50;97.10;20.00;101011.00;;;;4927254;28;88749;-64
2022/09/04 07:07:57;;;;;;;5.47;3.13;;;19.80;97.20;20.30;101003.00;;;;4908772;28;106317;-64
2022/09/04 07:10:34;;;;;;;3.13;2.83;;;20.00;96.00;20.40;101005.00;;;;4912687;28;88276;-64
2022/09/04 07:13:36;;;;;;;4.95;3.15;;;20.10;95.30;20.20;101009.00;;;;4925275;28;87785;-64
2022/09/04 07:16:14;;;;;;;6.05;3.40;;;20.10;94.60;20.20;101016.00;;;;4912477;28;87944;-64
2022/09/04 07:19:12;;;;;;;4.05;2.63;;;20.00;94.50;20.20;101019.00;;;;4910035;28;105798;-64
2022/09/04 07:22:03;;;;;;;2.58;1.67;;;20.00;94.10;20.40;101023.00;;;;4908220;28;91357;-64
2022/09/04 07:25:01;;;;;;;2.78;2.22;;;20.10;94.30;20.70;101032.00;;;;4910815;28;87117;-65
2022/09/04 07:27:49;;;;;;;2.75;2.17;;;20.40;93.70;20.90;101034.00;;;;4911047;28;88019;-64
2022/09/04 07:30:18;;;;;;;6.68;2.60;;;20.60;92.40;21.00;101030.00;;;;4908657;28;88525;-64
2022/09/04 07:33:14;;;;;;;3.65;2.75;;;20.70;92.50;21.30;101030.00;;;;4892622;28;88884;-65
2022/09/04 07:36:27;;;;;;;2.65;2.10;;;21.00;91.90;21.60;101038.00;;;;4926968;28;88130;-63
2022/09/04 07:39:30;;;;;;;4.38;2.90;;;21.20;91.10;21.70;101045.00;;;;4912713;28;88196;-64
2022/09/04 07:42:41;;;;;;;4.47;2.85;;;21.60;86.70;21.60;101041.00;;;;4861930;28;88619;-64
2022/09/04 07:45:53;;;;;;;4.95;2.35;;;21.40;87.60;21.80;101048.00;;;;4870944;28;87945;-64
2022/09/04 07:48:39;;;;;;;3.35;2.83;;;21.50;87.70;21.90;101052.00;;;;4843720;28;87886;-65
2022/09/04 07:51:16;;;;;;;5.75;2.30;;;21.70;84.70;22.00;101054.00;;;;4905894;28;87872;-65
2022/09/04 07:54:23;;;;;;;3.88;2.10;;;21.70;85.80;22.30;101057.00;;;;4911957;28;87384;-64
2022/09/04 07:57:35;;;;;;;2.75;2.15;;;22.00;83.40;22.40;101057.00;;;;4925750;28;88061;-65
2022/09/04 08:00:09;;;;;;;3.28;1.98;;;22.10;82.90;22.60;101068.00;;;;4906007;28;100974;-65
2022/09/04 08:03:19;;;;;;;3.17;2.30;;;22.30;80.70;22.70;101069.00;;;;4912335;28;89234;-64
2022/09/04 08:06:12;;;;;;;3.95;2.63;;;22.40;79.00;22.60;101068.00;;;;4912689;28;87593;-66
2022/09/04 08:09:05;;;;;;;5.03;2.50;;;22.40;79.60;22.70;101077.00;;;;4912852;28;88850;-64
2022/09/04 08:11:51;;;;;;;2.25;2.05;;;22.50;79.70;22.90;101072.00;;;;4912710;28;88098;-65
2022/09/04 08:14:51;;;;;;;2.70;2.25;;;22.60;77.20;23.00;101074.00;;;;4908394;28;101138;-65
2022/09/04 08:17:53;;;;;;;3.55;2.78;;;22.70;75.80;23.00;101071.00;;;;4910873;28;110265;-65
2022/09/04 08:20:38;;;;;;;1.80;1.70;;;22.70;75.90;23.10;101077.00;;;;4911127;28;110337;-65
2022/09/04 08:23:41;;;;;;;1.90;1.80;;;22.80;76.10;23.40;101080.00;;;;4926770;28;102999;-65
2022/09/04 08:26:50;;;;;;;2.95;2.03;;;23.10;74.10;23.60;101086.00;;;;4913144;28;87797;-65
2022/09/04 08:30:04;;;;;;;3.80;2.35;;;23.20;73.80;23.80;101074.00;;;;4910615;28;110470;-65
2022/09/04 08:32:57;;;;;;;4.03;2.78;;;23.50;71.40;23.90;101079.00;;;;4902374;28;89241;-65
2022/09/04 08:35:38;;;;;;;2.33;2.13;;;23.80;71.90;24.10;101079.00;;;;4894295;28;87879;-65
2022/09/04 08:38:37;;;;;;;2.08;1.50;;;23.80;70.50;24.30;101083.00;;;;4909601;28;87630;-65
2022/09/04 08:41:17;;;;;;;2.88;1.95;;;23.90;69.20;24.30;101079.00;;;;4894604;28;89492;-66
2022/09/04 08:44:20;;;;;;;4.68;1.92;;;24.00;67.80;24.40;101083.00;;;;4894566;28;87863;-66
2022/09/04 08:47:39;;;;;;;3.08;2.03;;;24.10;68.10;24.50;101077.00;;;;4894780;28;104244;-65
2022/09/04 08:50:28;;;;;;;3.33;1.75;;;24.10;66.40;24.50;101081.00;;;;4897329;28;87669;-65
2022/09/04 08:53:06;;;;;;;3.13;1.80;;;24.20;66.60;24.80;101079.00;;;;4901493;28;87250;-67
2022/09/04 08:56:05;;;;;;;3.63;2.08;;;24.40;64.60;24.70;101086.00;;;;4894729;28;87771;-66
2022/09/04 08:59:31;;;;;;;3.00;2.25;;;24.40;63.50;24.70;101083.00;;;;4893008;28;87718;-65
2022/09/04 09:02:47;;;;;;;4.35;2.75;;;24.40;64.30;24.80;101082.00;;;;4892519;28;88886;-66
2022/09/04 09:05:56;;;;;;;2.47;2.20;;;24.40;64.10;25.00;101089.00;;;;4892849;28;88424;-66
2022/09/04 09:09:05;;;;;;;1.67;1.50;;;24.60;64.40;25.30;101083.00;;;;4907145;28;109569;-65
2022/09/04 09:12:31;;;;;;;1.90;1.65;;;24.80;64.60;25.70;101095.00;;;;4897704;28;87522;-65
2022/09/04 09:15:38;;;;;;;2.75;1.80;;;25.10;63.80;26.10;101103.00;;;;4862262;28;87775;-66
2022/09/04 09:19:00;;;;;;;2.20;2.00;;;25.50;63.10;26.50;101106.00;;;;4875335;28;88172;-65
2022/09/04 09:22:06;;;;;;;2.35;2.15;;;25.80;62.10;26.60;101103.00;;;;4895744;28;87945;-66
2022/09/04 09:25:19;;;;;;;1.95;1.65;;;26.20;60.10;26.80;101110.00;;;;4903175;28;101479;-66
2022/09/04 09:28:04;;;;;;;1.77;1.45;;;26.30;59.50;27.00;101108.00;;;;4909191;28;88082;-66
2022/09/04 09:31:07;;;;;;;3.20;2.25;;;26.50;58.30;27.10;101108.00;;;;4897939;28;87894;-65
2022/09/04 09:34:20;;;;;;;2.47;2.00;;;26.70;58.00;27.30;101094.00;;;;4882562;28;88916;-65
2022/09/04 09:37:00;;;;;;;2.05;1.85;;;26.70;57.60;27.30;101093.00;;;;4898300;28;87951;-66
2022/09/04 09:39:46;;;;;;;2.72;2.35;;;26.80;57.00;27.50;101099.00;;;;4899176;28;87687;-67
2022/09/04 09:42:41;;;;;;;2.28;1.98;;;27.00;56.30;27.40;101088.00;;;;4895477;28;112002;-65
2022/09/04 09:45:34;;;;;;;3.05;2.08;;;27.00;54.40;27.50;101103.00;;;;4908342;28;110491;-65
2022/09/04 09:48:48;;;;;;;3.42;2.08;;;27.00;54.80;27.50;101092.00;;;;4892915;28;87860;-65
2022/09/04 09:51:22;;;;;;;4.38;2.00;;;27.00;54.90;27.70;101091.00;;;;4895464;28;87872;-65
2022/09/04 09:54:36;;;;;;;3.38;2.10;;;27.20;54.70;28.00;101090.00;;;;4895442;28;86911;-66
2022/09/04 09:57:48;;;;;;;1.67;1.58;;;27.30;54.10;28.30;101089.00;;;;4894332;28;88089;-63
2022/09/04 10:00:24;;;;;;;2.47;1.42;;;27.60;52.80;28.40;101094.00;;;;4885693;28;88119;-63
2022/09/04 10:03:37;;;;;;;3.13;2.13;;;27.70;52.90;28.10;101088.00;;;;4875333;28;88726;-66
2022/09/04 10:07:18;;;;;;;1.73;1.63;;;27.70;51.40;28.30;101090.00;;;;4894222;28;87789;-64
2022/09/04 10:10:28;;;;;;;1.70;1.55;;;27.70;51.90;28.50;101086.00;;;;4870120;28;88038;-64
2022/09/04 10:13:26;;;;;;;3.58;1.58;;;27.80;51.00;28.70;101086.00;;;;4900547;28;87891;-66
2022/09/04 10:16:29;;;;;;;2.03;1.60;;;28.00;51.80;29.10;101092.00;;;;4898120;28;87627;-68
2022/09/04 10:19:34;;;;;;;2.67;1.88;;;28.30;50.90;29.40;101091.00;;;;4901729;28;87910;-68
2022/09/04 10:22:22;;;;;;;3.15;1.88;;;28.60;51.00;29.40;101090.00;;;;4896409;28;88049;-67
2022/09/04 10:25:12;;;;;;;1.95;1.73;;;28.80;49.00;29.50;101082.00;;;;4898408;28;87308;-70
2022/09/04 10:27:47;;;;;;;3.03;1.38;;;28.80;49.20;29.70;101094.00;;;;4900809;28;87743;-68
2022/09/04 10:30:22;;;;;;;2.20;1.60;;;28.90;48.90;29.80;101096.00;;;;4912562;28;90525;-67
2022/09/04 10:33:04;;;;;;;3.17;2.28;;;29.10;47.50;30.00;101088.00;;;;4902593;28;89052;-70
2022/09/04 10:35:58;;;;;;;1.42;1.33;;;29.20;47.10;30.20;101083.00;;;;4924196;28;91306;-68
2022/09/04 10:38:34;;;;;;;2.35;1.73;;;29.40;47.50;30.60;101089.00;;;;4917612;28;87671;-68
2022/09/04 10:41:29;;;;;;;3.72;1.80;;;29.80;47.80;30.90;101093.00;;;;4915904;28;87884;-67
2022/09/04 10:44:16;;;;;;;2.03;1.58;;;30.10;47.40;31.20;101105.00;;;;4890509;28;107187;-69
2022/09/04 10:46:55;;;;;;;3.95;1.60;;;30.30;47.50;31.40;101111.00;;;;4915167;28;87800;-69
2022/09/04 10:49:58;;;;;;;3.33;1.90;;;30.60;47.10;31.50;101103.00;;;;4916732;28;88229;-68
2022/09/04 10:52:59;;;;;;;1.48;1.27;;;30.70;45.60;31.50;101101.00;;;;4909884;28;87270;-68
2022/09/04 10:55:42;;;;;;;2.25;1.50;;;30.80;44.60;31.50;101104.00;;;;4932924;28;88510;-68
2022/09/04 10:58:38;;;;;;;2.17;1.42;;;30.90;45.10;31.60;101104.00;;;;4935727;28;87973;-69
2022/09/04 11:02:01;;;;;;;2.53;1.45;;;30.90;44.90;31.90;101110.00;;;;4916563;28;88802;-69
2022/09/04 11:05:03;;;;;;;3.00;1.75;;;31.10;45.00;32.20;101104.00;;;;4898476;28;88035;-68
2022/09/04 11:08:11;;;;;;;4.00;1.67;;;31.40;44.40;32.40;101113.00;;;;4932596;28;89039;-68
2022/09/04 11:10:53;;;;;;;1.90;1.60;;;31.60;43.90;32.50;101116.00;;;;4919393;28;87797;-69
2022/09/04 11:14:13;;;;;;;2.20;1.63;;;31.70;43.40;32.70;101108.00;;;;4930062;28;88095;-69
2022/09/04 11:17:23;;;;;;;2.05;1.38;;;31.90;43.10;32.90;101114.00;;;;4912458;28;88153;-68
2022/09/04 11:20:28;;;;;;;2.08;0.93;;;32.10;42.70;33.00;101108.00;;;;4902087;28;88510;-69
2022/09/04 11:23:37;;;;;;;1.90;1.77;;;32.30;41.90;33.10;101117.00;;;;4933135;28;102508;-69
2022/09/04 11:26:46;;;;;;;1.65;1.55;;;32.30;41.30;33.20;101103.00;;;;4898370;28;87673;-68
2022/09/04 11:29:46;;;;;;;3.08;1.70;;;32.40;41.60;33.20;101110.00;;;;4937390;28;87458;-70
2022/09/04 11:33:07;;;;;;;2.40;1.25;;;32.50;40.40;33.10;101112.00;;;;4919097;28;89433;-70
2022/09/04 11:36:21;;;;;;;3.17;1.67;;;32.50;39.60;32.90;101105.00;;;;4916746;28;87856;-68
2022/09/04 11:39:34;;;;;;;1.35;1.15;;;32.30;39.30;32.70;101113.00;;;;4921492;28;88239;-69
2022/09/04 11:42:19;;;;;;;2.28;1.40;;;32.20;40.10;32.70;101116.00;;;;4911760;28;87632;-69
2022/09/04 11:45:25;;;;;;;1.23;1.08;;;32.10;40.30;32.80;101111.00;;;;4907288;28;89723;-68
2022/09/04 11:48:39;;;;;;;1.65;1.48;;;32.20;40.00;32.90;101112.00;;;;4911374;28;87743;-69
2022/09/04 11:51:24;;;;;;;2.88;1.73;;;32.20;39.90;33.00;101119.00;;;;4910781;28;87905;-69
2022/09/04 11:54:17;;;;;;;2.80;1.08;;;32.30;39.30;33.20;101111.00;;;;4915054;28;110709;-69
2022/09/04 11:57:06;;;;;;;1.45;1.27;;;32.50;39.70;33.30;101116.00;;;;4911831;28;87858;-71
2022/09/04 11:59:45;;;;;;;1.27;1.17;;;32.60;39.00;33.10;101108.00;;;;4908122;28;87809;-68
2022/09/04 12:02:53;;;;;;;1.45;1.35;;;32.60;38.40;32.70;101122.00;;;;4911192;28;88934;-69
2022/09/04 12:05:44;;;;;;;1.33;1.10;;;32.30;37.80;32.50;101119.00;;;;4889323;28;88596;-69
2022/09/04 12:08:39;;;;;;;2.30;1.33;;;32.00;38.70;32.50;101113.00;;;;4911673;28;87954;-69
2022/09/04 12:11:46;;;;;;;1.65;0.82;;;31.90;38.60;32.20;101113.00;;;;4903527;28;101969;-68
2022/09/04 12:14:40;;;;;;;1.27;0.90;;;31.70;38.10;32.20;101110.00;;;;4909556;28;87604;-68
2022/09/04 12:18:04;;;;;;;2.13;1.52;;;31.60;38.40;32.00;101122.00;;;;4910598;28;88112;-68
2022/09/04 12:20:56;;;;;;;1.80;1.13;;;31.50;37.70;32.10;101114.00;;;;4877125;28;88233;-70
2022/09/04 12:23:47;;;;;;;1.83;1.25;;;31.40;38.60;32.30;101107.00;;;;4913173;28;87157;-69
2022/09/04 12:27:06;;;;;;;2.22;1.45;;;31.60;39.00;32.70;101124.00;;;;4903491;28;102394;-70
2022/09/04 12:29:46;;;;;;;1.65;1.35;;;31.90;38.40;32.70;101110.00;;;;4848237;28;102459;-69
2022/09/04 12:32:35;;;;;;;1.58;1.25;;;32.00;37.60;32.80;101115.00;;;;4909637;28;100884;-69
2022/09/04 12:35:38;;;;;;;0.85;0.85;;;32.10;38.30;32.90;101117.00;;;;4909847;28;88191;-69
2022/09/04 12:38:45;;;;;;;1.17;1.05;;;32.20;37.80;33.20;101119.00;;;;4912292;28;87993;-69
2022/09/04 12:41:54;;;;;;;1.40;1.02;;;32.40;38.00;33.30;101112.00;;;;4911235;28;88150;-69
2022/09/04 12:44:51;;;;;;;2.25;1.45;;;32.50;37.50;33.20;101115.00;;;;4911781;28;89253;-70
2022/09/04 12:48:02;;;;;;;1.40;1.20;;;32.50;36.40;33.20;101123.00;;;;4913435;28;88067;-70